createdAt,value
2018-12-21T00:00:18.362Z,20.70
2018-12-21T00:00:51.834Z,20.69
2018-12-21T00:01:25.445Z,20.69
2018-12-21T00:01:58.781Z,20.70
2018-12-21T00:02:32.335Z,20.70
2018-12-21T00:03:05.486Z,20.70
2018-12-21T00:03:38.766Z,20.69
2018-12-21T00:04:12.528Z,20.71
2018-12-21T00:04:45.784Z,20.71
2018-12-21T00:05:19.040Z,20.71
2018-12-21T00:05:52.719Z,20.71
2018-12-21T00:06:25.946Z,20.71
2018-12-21T00:06:59.065Z,20.72
2018-12-21T00:07:32.405Z,20.72
2018-12-21T00:08:06.055Z,20.71
2018-12-21T00:08:38.746Z,20.72
2018-12-21T00:09:12.017Z,20.71
2018-12-21T00:09:45.405Z,20.71
2018-12-21T00:10:18.939Z,20.72
2018-12-21T00:10:52.141Z,20.72
2018-12-21T00:11:25.506Z,20.71
2018-12-21T00:11:58.751Z,20.72
2018-12-21T00:12:32.215Z,20.73
2018-12-21T00:13:05.501Z,20.73
2018-12-21T00:13:38.836Z,20.73
2018-12-21T00:14:12.415Z,20.73
2018-12-21T00:14:45.766Z,20.73
2018-12-21T00:15:19.078Z,20.72
2018-12-21T00:15:52.346Z,20.74
2018-12-21T00:16:26.070Z,20.73
2018-12-21T00:16:59.346Z,20.74
2018-12-21T00:17:34.625Z,20.73
2018-12-21T00:18:08.167Z,20.74
2018-12-21T00:18:41.564Z,20.73
2018-12-21T00:19:14.756Z,20.74
2018-12-21T00:19:48.075Z,20.73
2018-12-21T00:20:21.237Z,20.74
2018-12-21T00:20:54.668Z,20.74
2018-12-21T00:21:27.997Z,20.73
2018-12-21T00:22:01.399Z,20.73
2018-12-21T00:22:34.857Z,20.73
2018-12-21T00:23:07.968Z,20.73
2018-12-21T00:23:41.257Z,20.75
2018-12-21T00:24:14.610Z,20.73
2018-12-21T00:24:48.841Z,20.74
2018-12-21T00:25:22.348Z,20.74
2018-12-21T00:25:55.938Z,20.74
2018-12-21T00:26:29.355Z,20.74
2018-12-21T00:27:03.006Z,20.74
2018-12-21T00:27:36.688Z,20.74
2018-12-21T00:28:09.897Z,20.75
2018-12-21T00:28:43.337Z,20.74
2018-12-21T00:29:16.881Z,20.74
2018-12-21T00:29:49.978Z,20.75
2018-12-21T00:30:23.014Z,20.76
2018-12-21T00:30:56.428Z,20.75
2018-12-21T00:31:29.941Z,20.75
2018-12-21T00:32:03.168Z,20.75
2018-12-21T00:32:36.379Z,20.74
2018-12-21T00:33:09.798Z,20.75
2018-12-21T00:33:43.409Z,20.75
2018-12-21T00:34:16.648Z,20.75
2018-12-21T00:34:49.821Z,20.76
2018-12-21T00:35:23.404Z,20.76
2018-12-21T00:35:56.848Z,20.77
2018-12-21T00:36:30.200Z,20.76
2018-12-21T00:37:03.650Z,20.77
2018-12-21T00:37:37.030Z,20.76
2018-12-21T00:38:10.348Z,20.77
2018-12-21T00:38:43.704Z,20.76
2018-12-21T00:39:17.095Z,20.77
2018-12-21T00:39:49.962Z,20.77
2018-12-21T00:40:23.088Z,20.77
2018-12-21T00:40:56.174Z,20.76
2018-12-21T00:41:29.420Z,20.77
2018-12-21T00:42:03.099Z,20.77
2018-12-21T00:42:36.421Z,20.77
2018-12-21T00:43:09.999Z,20.78
2018-12-21T00:43:43.796Z,20.78
2018-12-21T00:44:17.164Z,20.78
2018-12-21T00:44:50.120Z,20.77
2018-12-21T00:45:23.139Z,20.78
2018-12-21T00:45:56.308Z,20.78
2018-12-21T00:46:29.599Z,20.78
2018-12-21T00:47:02.886Z,20.77
2018-12-21T00:47:36.065Z,20.77
2018-12-21T00:48:09.100Z,20.77
2018-12-21T00:48:42.539Z,20.78
2018-12-21T00:49:15.956Z,20.77
2018-12-21T00:49:49.106Z,20.77
2018-12-21T00:50:22.292Z,20.78
2018-12-21T00:50:55.600Z,20.78
2018-12-21T00:51:30.268Z,20.78
2018-12-21T00:52:03.703Z,20.78
2018-12-21T00:52:37.072Z,20.78
2018-12-21T00:53:10.567Z,20.78
2018-12-21T00:53:43.803Z,20.78
2018-12-21T00:54:17.169Z,20.79
2018-12-21T00:54:50.348Z,20.78
2018-12-21T00:55:23.580Z,20.79
2018-12-21T00:55:56.694Z,20.80
2018-12-21T00:56:29.919Z,20.79
2018-12-21T00:57:03.066Z,20.80
2018-12-21T00:57:36.305Z,20.81
2018-12-21T00:58:09.574Z,20.79
2018-12-21T00:58:42.982Z,20.81
2018-12-21T00:59:16.231Z,20.80
2018-12-21T00:59:49.403Z,20.80
2018-12-21T01:00:22.742Z,20.80
2018-12-21T01:00:55.961Z,20.81
2018-12-21T01:01:29.309Z,20.80
2018-12-21T01:02:02.132Z,20.79
2018-12-21T01:02:35.049Z,20.77
2018-12-21T01:03:08.066Z,20.81
2018-12-21T01:03:41.409Z,20.80
2018-12-21T01:04:14.726Z,20.80
2018-12-21T01:04:47.793Z,20.80
2018-12-21T01:05:22.116Z,20.82
2018-12-21T01:05:55.754Z,20.79
2018-12-21T01:06:28.853Z,20.80
2018-12-21T01:07:02.423Z,20.80
2018-12-21T01:07:35.692Z,20.79
2018-12-21T01:08:09.161Z,20.80
2018-12-21T01:08:42.625Z,20.80
2018-12-21T01:09:16.049Z,20.81
2018-12-21T01:09:49.329Z,20.81
2018-12-21T01:10:22.853Z,20.81
2018-12-21T01:10:56.368Z,20.81
2018-12-21T01:11:29.858Z,20.81
2018-12-21T01:12:03.565Z,20.81
2018-12-21T01:12:37.277Z,20.82
2018-12-21T01:13:11.940Z,20.82
2018-12-21T01:13:45.298Z,20.82
2018-12-21T01:14:18.008Z,20.81
2018-12-21T01:14:51.114Z,20.82
2018-12-21T01:15:24.554Z,20.82
2018-12-21T01:15:59.111Z,20.81
2018-12-21T01:16:32.210Z,20.83
2018-12-21T01:17:05.460Z,20.83
2018-12-21T01:17:38.878Z,20.83
2018-12-21T01:18:11.879Z,20.82
2018-12-21T01:18:45.310Z,20.83
2018-12-21T01:19:18.721Z,20.83
2018-12-21T01:19:51.999Z,20.82
2018-12-21T01:20:25.167Z,20.82
2018-12-21T01:20:58.420Z,20.83
2018-12-21T01:21:38.542Z,20.82
2018-12-21T01:22:07.174Z,20.82
2018-12-21T01:22:40.527Z,20.84
2018-12-21T01:23:13.435Z,20.83
2018-12-21T01:23:46.827Z,20.84
2018-12-21T01:24:20.548Z,20.83
2018-12-21T01:24:53.963Z,20.83
2018-12-21T01:25:27.420Z,20.83
2018-12-21T01:26:01.081Z,20.83
2018-12-21T01:26:34.470Z,20.84
2018-12-21T01:27:08.077Z,20.84
2018-12-21T01:27:41.508Z,20.83
2018-12-21T01:28:14.951Z,20.84
2018-12-21T01:28:48.328Z,20.84
2018-12-21T01:29:21.561Z,20.83
2018-12-21T01:29:54.826Z,20.84
2018-12-21T01:30:28.165Z,20.84
2018-12-21T01:31:01.485Z,20.83
2018-12-21T01:31:34.621Z,20.84
2018-12-21T01:32:08.311Z,20.84
2018-12-21T01:32:41.654Z,20.84
2018-12-21T01:33:15.428Z,20.84
2018-12-21T01:33:48.612Z,20.85
2018-12-21T01:34:22.109Z,20.85
2018-12-21T01:34:55.315Z,20.85
2018-12-21T01:35:28.844Z,20.84
2018-12-21T01:36:02.848Z,20.84
2018-12-21T01:36:36.390Z,20.85
2018-12-21T01:37:09.574Z,20.86
2018-12-21T01:37:43.578Z,20.85
2018-12-21T01:38:17.143Z,20.84
2018-12-21T01:38:50.700Z,20.86
2018-12-21T01:39:24.068Z,20.85
2018-12-21T01:39:57.469Z,20.85
2018-12-21T01:40:30.669Z,20.86
2018-12-21T01:41:03.816Z,20.85
2018-12-21T01:41:37.115Z,20.85
2018-12-21T01:42:10.436Z,20.86
2018-12-21T01:42:43.661Z,20.86
2018-12-21T01:43:16.934Z,20.85
2018-12-21T01:43:50.091Z,20.86
2018-12-21T01:44:23.544Z,20.86
2018-12-21T01:44:57.025Z,20.85
2018-12-21T01:45:30.403Z,20.86
2018-12-21T01:46:03.651Z,20.86
2018-12-21T01:46:37.012Z,20.86
2018-12-21T01:47:10.642Z,20.85
2018-12-21T01:47:44.185Z,20.85
2018-12-21T01:48:17.601Z,20.86
2018-12-21T01:48:51.160Z,20.86
2018-12-21T01:49:24.574Z,20.86
2018-12-21T01:49:57.858Z,20.86
2018-12-21T01:50:31.015Z,20.87
2018-12-21T01:51:04.441Z,20.86
2018-12-21T01:51:37.717Z,20.87
2018-12-21T01:52:11.116Z,20.87
2018-12-21T01:52:44.453Z,20.87
2018-12-21T01:53:17.709Z,20.86
2018-12-21T01:53:51.112Z,20.87
2018-12-21T01:54:24.466Z,20.86
2018-12-21T01:54:57.862Z,20.86
2018-12-21T01:55:31.386Z,20.87
2018-12-21T01:56:04.723Z,20.87
2018-12-21T01:56:38.066Z,20.87
2018-12-21T01:57:11.586Z,20.87
2018-12-21T01:57:45.085Z,20.88
2018-12-21T01:58:18.385Z,20.88
2018-12-21T01:58:51.769Z,20.87
2018-12-21T01:59:25.069Z,20.88
2018-12-21T01:59:58.369Z,20.88
2018-12-21T02:00:31.900Z,20.88
2018-12-21T02:01:04.880Z,20.87
2018-12-21T02:01:38.291Z,20.88
2018-12-21T02:02:11.684Z,20.88
2018-12-21T02:02:45.026Z,20.88
2018-12-21T02:03:18.174Z,20.88
2018-12-21T02:03:51.335Z,20.87
2018-12-21T02:04:24.570Z,20.88
2018-12-21T02:04:57.654Z,20.88
2018-12-21T02:05:31.008Z,20.88
2018-12-21T02:06:04.159Z,20.88
2018-12-21T02:06:37.410Z,20.88
2018-12-21T02:07:10.351Z,20.88
2018-12-21T02:07:43.782Z,20.87
2018-12-21T02:08:16.853Z,20.89
2018-12-21T02:08:50.054Z,20.88
2018-12-21T02:09:23.385Z,20.89
2018-12-21T02:09:56.662Z,20.88
2018-12-21T02:10:29.897Z,20.89
2018-12-21T02:11:03.102Z,20.89
2018-12-21T02:11:36.390Z,20.89
2018-12-21T02:12:09.871Z,20.89
2018-12-21T02:12:42.899Z,20.90
2018-12-21T02:13:16.042Z,20.88
2018-12-21T02:13:49.269Z,20.89
2018-12-21T02:14:22.562Z,20.89
2018-12-21T02:14:56.040Z,20.89
2018-12-21T02:15:29.694Z,20.89
2018-12-21T02:16:03.105Z,20.89
2018-12-21T02:16:36.296Z,20.89
2018-12-21T02:17:09.031Z,20.89
2018-12-21T02:17:42.099Z,20.90
2018-12-21T02:18:15.538Z,20.90
2018-12-21T02:18:48.895Z,20.89
2018-12-21T02:19:22.105Z,20.89
2018-12-21T02:19:55.890Z,20.88
2018-12-21T02:20:28.991Z,20.90
2018-12-21T02:21:02.617Z,20.89
2018-12-21T02:21:35.993Z,20.90
2018-12-21T02:22:09.504Z,20.90
2018-12-21T02:22:42.517Z,20.91
2018-12-21T02:23:16.136Z,20.90
2018-12-21T02:23:49.286Z,20.90
2018-12-21T02:24:22.658Z,20.90
2018-12-21T02:24:56.198Z,20.90
2018-12-21T02:25:29.772Z,20.90
2018-12-21T02:26:03.159Z,20.89
2018-12-21T02:26:36.691Z,20.90
2018-12-21T02:27:10.340Z,20.90
2018-12-21T02:27:43.980Z,20.92
2018-12-21T02:28:17.271Z,20.91
2018-12-21T02:28:50.808Z,20.90
2018-12-21T02:29:23.783Z,20.90
2018-12-21T02:29:56.861Z,20.90
2018-12-21T02:30:29.975Z,20.90
2018-12-21T02:31:02.947Z,20.91
2018-12-21T02:31:36.201Z,20.90
2018-12-21T02:32:09.598Z,20.90
2018-12-21T02:32:42.771Z,20.92
2018-12-21T02:33:16.050Z,20.90
2018-12-21T02:33:49.709Z,20.90
2018-12-21T02:34:23.305Z,20.91
2018-12-21T02:34:56.722Z,20.90
2018-12-21T02:35:29.980Z,20.90
2018-12-21T02:36:03.556Z,20.91
2018-12-21T02:36:37.042Z,20.90
2018-12-21T02:37:10.117Z,20.90
2018-12-21T02:37:43.598Z,20.92
2018-12-21T02:38:17.337Z,20.91
2018-12-21T02:38:50.732Z,20.93
2018-12-21T02:39:24.066Z,20.91
2018-12-21T02:39:57.386Z,20.92
2018-12-21T02:40:30.742Z,20.90
2018-12-21T02:41:04.969Z,20.92
2018-12-21T02:41:38.469Z,20.93
2018-12-21T02:42:11.811Z,20.92
2018-12-21T02:42:45.171Z,20.92
2018-12-21T02:43:18.611Z,20.92
2018-12-21T02:43:51.750Z,20.92
2018-12-21T02:44:25.060Z,20.92
2018-12-21T02:44:58.608Z,20.90
2018-12-21T02:45:32.071Z,20.90
2018-12-21T02:46:05.302Z,20.90
2018-12-21T02:46:38.493Z,20.91
2018-12-21T02:47:11.936Z,20.92
2018-12-21T02:47:45.274Z,20.93
2018-12-21T02:48:18.687Z,20.93
2018-12-21T02:48:51.921Z,20.90
2018-12-21T02:49:25.704Z,20.92
2018-12-21T02:49:59.028Z,20.93
2018-12-21T02:50:32.557Z,20.93
2018-12-21T02:51:05.755Z,20.92
2018-12-21T02:51:38.892Z,20.93
2018-12-21T02:52:12.163Z,20.93
2018-12-21T02:52:45.337Z,20.93
2018-12-21T02:53:18.530Z,20.92
2018-12-21T02:53:51.660Z,20.93
2018-12-21T02:54:24.767Z,20.92
2018-12-21T02:54:58.052Z,20.93
2018-12-21T02:55:31.245Z,20.90
2018-12-21T02:56:04.593Z,20.92
2018-12-21T02:56:37.897Z,20.92
2018-12-21T02:57:11.308Z,20.91
2018-12-21T02:57:44.396Z,20.93
2018-12-21T02:58:17.954Z,20.93
2018-12-21T02:58:51.142Z,20.92
2018-12-21T02:59:24.246Z,20.94
2018-12-21T02:59:57.406Z,20.93
2018-12-21T03:00:30.881Z,20.92
2018-12-21T03:01:04.275Z,20.93
2018-12-21T03:01:37.688Z,20.93
2018-12-21T03:02:11.214Z,20.93
2018-12-21T03:02:44.671Z,20.94
2018-12-21T03:03:18.202Z,20.92
2018-12-21T03:03:51.654Z,20.93
2018-12-21T03:04:24.923Z,20.94
2018-12-21T03:04:58.251Z,20.93
2018-12-21T03:05:31.754Z,20.93
2018-12-21T03:06:05.382Z,20.94
2018-12-21T03:06:38.791Z,20.94
2018-12-21T03:07:12.182Z,20.94
2018-12-21T03:07:45.724Z,20.93
2018-12-21T03:08:19.215Z,20.94
2018-12-21T03:08:52.566Z,20.94
2018-12-21T03:09:26.015Z,20.93
2018-12-21T03:09:59.293Z,20.94
2018-12-21T03:10:32.737Z,20.94
2018-12-21T03:11:06.184Z,20.93
2018-12-21T03:11:39.600Z,20.94
2018-12-21T03:12:12.769Z,20.94
2018-12-21T03:12:46.099Z,20.93
2018-12-21T03:13:19.487Z,20.93
2018-12-21T03:13:52.778Z,20.93
2018-12-21T03:14:26.095Z,20.93
2018-12-21T03:14:59.414Z,20.94
2018-12-21T03:15:32.915Z,20.94
2018-12-21T03:16:06.122Z,20.94
2018-12-21T03:16:39.386Z,20.94
2018-12-21T03:17:12.600Z,20.93
2018-12-21T03:17:46.050Z,20.94
2018-12-21T03:18:19.337Z,20.94
2018-12-21T03:18:52.701Z,20.94
2018-12-21T03:19:26.389Z,20.94
2018-12-21T03:19:59.752Z,20.94
2018-12-21T03:20:33.186Z,20.94
2018-12-21T03:21:06.809Z,20.95
2018-12-21T03:21:40.133Z,20.95
2018-12-21T03:22:14.911Z,20.95
2018-12-21T03:22:47.558Z,20.95
2018-12-21T03:23:20.115Z,20.94
2018-12-21T03:23:53.164Z,20.95
2018-12-21T03:24:26.426Z,20.94
2018-12-21T03:24:59.629Z,20.95
2018-12-21T03:25:33.260Z,20.95
2018-12-21T03:26:06.739Z,20.94
2018-12-21T03:26:39.998Z,20.94
2018-12-21T03:27:13.146Z,20.96
2018-12-21T03:27:46.437Z,20.94
2018-12-21T03:28:19.953Z,20.94
2018-12-21T03:28:53.053Z,20.94
2018-12-21T03:29:26.223Z,20.94
2018-12-21T03:29:59.552Z,20.93
2018-12-21T03:30:33.073Z,20.95
2018-12-21T03:31:06.698Z,20.94
2018-12-21T03:31:39.793Z,20.94
2018-12-21T03:32:12.715Z,20.94
2018-12-21T03:32:45.750Z,20.94
2018-12-21T03:33:18.944Z,20.95
2018-12-21T03:33:52.180Z,20.95
2018-12-21T03:34:25.325Z,20.94
2018-12-21T03:34:58.583Z,20.95
2018-12-21T03:35:31.966Z,20.96
2018-12-21T03:36:05.652Z,20.95
2018-12-21T03:36:39.096Z,20.96
2018-12-21T03:37:12.782Z,20.95
2018-12-21T03:37:46.305Z,20.95
2018-12-21T03:38:19.583Z,20.95
2018-12-21T03:38:53.010Z,20.94
2018-12-21T03:39:26.435Z,20.94
2018-12-21T03:39:59.701Z,20.95
2018-12-21T03:40:33.010Z,20.95
2018-12-21T03:41:06.408Z,20.96
2018-12-21T03:41:39.687Z,20.95
2018-12-21T03:42:13.107Z,20.96
2018-12-21T03:42:46.285Z,20.95
2018-12-21T03:43:19.556Z,20.94
2018-12-21T03:43:52.875Z,20.95
2018-12-21T03:44:26.295Z,20.95
2018-12-21T03:44:59.366Z,20.96
2018-12-21T03:45:32.634Z,20.96
2018-12-21T03:46:05.885Z,20.96
2018-12-21T03:46:39.282Z,20.95
2018-12-21T03:47:12.694Z,20.96
2018-12-21T03:47:46.279Z,20.97
2018-12-21T03:48:19.632Z,20.95
2018-12-21T03:48:52.990Z,20.96
2018-12-21T03:49:26.370Z,20.96
2018-12-21T03:49:59.671Z,20.94
2018-12-21T03:50:33.340Z,20.95
2018-12-21T03:51:06.759Z,20.95
2018-12-21T03:51:40.244Z,20.94
2018-12-21T03:52:13.507Z,20.95
2018-12-21T03:52:47.237Z,20.95
2018-12-21T03:53:20.667Z,20.95
2018-12-21T03:53:53.854Z,20.95
2018-12-21T03:54:28.132Z,20.95
2018-12-21T03:55:02.022Z,20.95
2018-12-21T03:55:35.557Z,20.95
2018-12-21T03:56:09.089Z,20.96
2018-12-21T03:56:42.690Z,20.96
2018-12-21T03:57:16.060Z,20.95
2018-12-21T03:57:49.180Z,20.95
2018-12-21T03:58:22.525Z,20.95
2018-12-21T03:58:56.861Z,20.96
2018-12-21T03:59:29.901Z,20.96
2018-12-21T04:00:03.268Z,20.96
2018-12-21T04:00:36.427Z,20.95
2018-12-21T04:01:09.966Z,20.96
2018-12-21T04:01:43.076Z,20.95
2018-12-21T04:02:16.430Z,20.95
2018-12-21T04:02:49.807Z,20.95
2018-12-21T04:03:23.354Z,20.96
2018-12-21T04:03:56.616Z,20.94
2018-12-21T04:04:29.737Z,20.95
2018-12-21T04:05:03.192Z,20.95
2018-12-21T04:05:36.622Z,20.96
2018-12-21T04:06:10.221Z,20.96
2018-12-21T04:06:43.482Z,20.94
2018-12-21T04:07:16.840Z,20.95
2018-12-21T04:07:50.210Z,20.95
2018-12-21T04:08:23.602Z,20.95
2018-12-21T04:08:56.753Z,20.95
2018-12-21T04:09:29.969Z,20.94
2018-12-21T04:10:03.327Z,20.95
2018-12-21T04:10:36.720Z,20.96
2018-12-21T04:11:10.113Z,20.96
2018-12-21T04:11:43.254Z,20.95
2018-12-21T04:12:16.881Z,20.96
2018-12-21T04:12:51.337Z,20.94
2018-12-21T04:13:25.000Z,20.94
2018-12-21T04:13:58.407Z,20.94
2018-12-21T04:14:31.878Z,20.95
2018-12-21T04:15:05.812Z,20.95
2018-12-21T04:15:39.010Z,20.96
2018-12-21T04:16:12.248Z,20.96
2018-12-21T04:16:45.704Z,20.96
2018-12-21T04:17:20.174Z,20.95
2018-12-21T04:17:53.762Z,20.95
2018-12-21T04:18:27.314Z,20.95
2018-12-21T04:19:00.693Z,20.96
2018-12-21T04:19:34.130Z,20.96
2018-12-21T04:20:07.617Z,20.96
2018-12-21T04:20:40.801Z,20.96
2018-12-21T04:21:14.080Z,20.96
2018-12-21T04:21:47.481Z,20.95
2018-12-21T04:22:21.149Z,20.95
2018-12-21T04:22:54.289Z,20.96
2018-12-21T04:23:27.508Z,20.96
2018-12-21T04:24:00.942Z,20.96
2018-12-21T04:24:34.158Z,20.97
2018-12-21T04:25:07.629Z,20.97
2018-12-21T04:25:40.817Z,20.97
2018-12-21T04:26:13.913Z,20.97
2018-12-21T04:26:47.666Z,20.98
2018-12-21T04:27:20.966Z,20.97
2018-12-21T04:27:54.166Z,20.97
2018-12-21T04:28:27.405Z,20.96
2018-12-21T04:29:00.597Z,20.96
2018-12-21T04:29:33.673Z,20.97
2018-12-21T04:30:06.911Z,20.96
2018-12-21T04:30:40.457Z,20.97
2018-12-21T04:31:13.543Z,20.98
2018-12-21T04:31:46.520Z,20.97
2018-12-21T04:32:20.111Z,20.97
2018-12-21T04:32:53.364Z,20.97
2018-12-21T04:33:26.701Z,20.96
2018-12-21T04:34:00.169Z,20.96
2018-12-21T04:34:33.663Z,20.96
2018-12-21T04:35:06.728Z,20.96
2018-12-21T04:35:39.988Z,20.97
2018-12-21T04:36:13.026Z,20.97
2018-12-21T04:36:46.729Z,20.97
2018-12-21T04:37:20.887Z,20.98
2018-12-21T04:37:54.386Z,20.98
2018-12-21T04:38:27.828Z,20.98
2018-12-21T04:39:01.325Z,20.98
2018-12-21T04:39:34.547Z,20.97
2018-12-21T04:40:07.744Z,20.97
2018-12-21T04:40:40.648Z,20.98
2018-12-21T04:41:13.953Z,20.98
2018-12-21T04:41:47.486Z,20.97
2018-12-21T04:42:20.904Z,20.98
2018-12-21T04:42:54.280Z,20.97
2018-12-21T04:43:27.701Z,20.97
2018-12-21T04:44:01.342Z,20.96
2018-12-21T04:44:34.593Z,20.97
2018-12-21T04:45:07.955Z,20.98
2018-12-21T04:45:41.492Z,20.97
2018-12-21T04:46:14.956Z,20.97
2018-12-21T04:46:48.749Z,20.97
2018-12-21T04:47:23.168Z,20.97
2018-12-21T04:47:56.502Z,20.98
2018-12-21T04:48:29.909Z,20.99
2018-12-21T04:49:03.238Z,20.98
2018-12-21T04:49:36.860Z,20.99
2018-12-21T04:50:10.377Z,20.96
2018-12-21T04:50:43.418Z,20.98
2018-12-21T04:51:17.089Z,20.97
2018-12-21T04:51:50.626Z,20.97
2018-12-21T04:52:23.909Z,20.96
2018-12-21T04:52:56.914Z,20.97
2018-12-21T04:53:29.928Z,20.97
2018-12-21T04:54:03.705Z,20.97
2018-12-21T04:54:36.915Z,20.98
2018-12-21T04:55:11.246Z,20.99
2018-12-21T04:55:44.413Z,20.98
2018-12-21T04:56:17.901Z,20.97
2018-12-21T04:56:52.224Z,20.98
2018-12-21T04:57:25.562Z,20.98
2018-12-21T04:57:59.093Z,20.98
2018-12-21T04:58:32.603Z,20.97
2018-12-21T04:59:06.011Z,20.98
2018-12-21T04:59:39.638Z,20.97
2018-12-21T05:00:12.920Z,20.98
2018-12-21T05:00:46.520Z,20.98
2018-12-21T05:01:19.989Z,20.98
2018-12-21T05:01:53.920Z,20.98
2018-12-21T05:02:27.209Z,20.98
2018-12-21T05:03:00.725Z,20.98
2018-12-21T05:03:33.958Z,20.98
2018-12-21T05:04:07.438Z,20.98
2018-12-21T05:04:40.940Z,20.98
2018-12-21T05:05:14.319Z,20.99
2018-12-21T05:05:47.747Z,20.99
2018-12-21T05:06:21.066Z,20.99
2018-12-21T05:06:54.590Z,20.98
2018-12-21T05:07:28.066Z,20.99
2018-12-21T05:08:01.606Z,20.99
2018-12-21T05:08:34.738Z,20.99
2018-12-21T05:09:08.444Z,20.98
2018-12-21T05:09:41.704Z,20.98
2018-12-21T05:10:14.912Z,20.99
2018-12-21T05:10:48.074Z,20.98
2018-12-21T05:11:21.361Z,20.98
2018-12-21T05:11:55.638Z,20.99
2018-12-21T05:12:28.764Z,20.99
2018-12-21T05:13:02.036Z,20.98
2018-12-21T05:13:35.611Z,20.99
2018-12-21T05:14:08.966Z,20.97
2018-12-21T05:14:42.512Z,20.98
2018-12-21T05:15:15.760Z,20.98
2018-12-21T05:15:49.001Z,20.98
2018-12-21T05:16:22.490Z,20.98
2018-12-21T05:16:56.079Z,20.98
2018-12-21T05:17:29.348Z,20.98
2018-12-21T05:18:02.579Z,20.98
2018-12-21T05:18:35.799Z,20.97
2018-12-21T05:19:09.084Z,20.98
2018-12-21T05:19:42.398Z,20.98
2018-12-21T05:20:15.393Z,20.98
2018-12-21T05:20:48.778Z,20.97
2018-12-21T05:21:22.166Z,20.98
2018-12-21T05:21:55.207Z,20.98
2018-12-21T05:22:28.799Z,20.98
2018-12-21T05:23:01.862Z,20.98
2018-12-21T05:23:35.437Z,20.99
2018-12-21T05:24:08.702Z,20.98
2018-12-21T05:24:41.884Z,20.98
2018-12-21T05:25:15.105Z,20.99
2018-12-21T05:25:48.404Z,20.98
2018-12-21T05:26:21.664Z,20.99
2018-12-21T05:26:54.879Z,20.98
2018-12-21T05:27:28.069Z,20.98
2018-12-21T05:28:01.235Z,20.99
2018-12-21T05:28:35.504Z,20.98
2018-12-21T05:29:09.022Z,20.99
2018-12-21T05:29:42.411Z,20.98
2018-12-21T05:30:15.633Z,20.98
2018-12-21T05:30:48.912Z,20.98
2018-12-21T05:31:28.228Z,20.98
2018-12-21T05:31:57.641Z,20.98
2018-12-21T05:32:30.815Z,20.97
2018-12-21T05:33:03.972Z,20.97
2018-12-21T05:33:37.271Z,20.99
2018-12-21T05:34:10.683Z,20.99
2018-12-21T05:34:44.030Z,20.98
2018-12-21T05:35:17.419Z,20.99
2018-12-21T05:35:50.621Z,20.98
2018-12-21T05:36:23.871Z,20.99
2018-12-21T05:36:57.526Z,20.98
2018-12-21T05:37:30.960Z,20.98
2018-12-21T05:38:04.131Z,20.98
2018-12-21T05:38:37.741Z,20.98
2018-12-21T05:39:10.817Z,20.98
2018-12-21T05:39:44.144Z,20.98
2018-12-21T05:40:17.563Z,20.99
2018-12-21T05:40:50.932Z,20.98
2018-12-21T05:41:24.602Z,20.98
2018-12-21T05:41:57.970Z,20.99
2018-12-21T05:42:31.139Z,20.98
2018-12-21T05:43:04.484Z,20.98
2018-12-21T05:43:37.817Z,20.98
2018-12-21T05:44:11.229Z,20.98
2018-12-21T05:44:44.523Z,20.98
2018-12-21T05:45:17.876Z,20.98
2018-12-21T05:45:51.423Z,20.99
2018-12-21T05:46:24.717Z,20.98
2018-12-21T05:46:57.979Z,20.99
2018-12-21T05:47:31.154Z,20.98
2018-12-21T05:48:04.281Z,21.00
2018-12-21T05:48:37.364Z,20.99
2018-12-21T05:49:10.605Z,20.98
2018-12-21T05:49:43.946Z,20.97
2018-12-21T05:50:17.433Z,20.98
2018-12-21T05:50:50.521Z,20.98
2018-12-21T05:51:23.898Z,20.98
2018-12-21T05:51:57.230Z,20.97
2018-12-21T05:52:30.740Z,20.98
2018-12-21T05:53:04.195Z,20.99
2018-12-21T05:53:37.566Z,20.98
2018-12-21T05:54:10.873Z,20.99
2018-12-21T05:54:44.396Z,20.99
2018-12-21T05:55:17.702Z,21.00
2018-12-21T05:55:51.050Z,20.99
2018-12-21T05:56:24.074Z,20.99
2018-12-21T05:56:57.454Z,20.98
2018-12-21T05:57:30.743Z,20.99
2018-12-21T05:58:03.960Z,20.98
2018-12-21T05:58:37.355Z,20.98
2018-12-21T05:59:10.724Z,20.98
2018-12-21T05:59:44.148Z,20.99
2018-12-21T06:00:17.724Z,20.99
2018-12-21T06:00:51.306Z,20.98
2018-12-21T06:01:24.774Z,20.98
2018-12-21T06:01:57.997Z,20.99
2018-12-21T06:02:31.218Z,20.99
2018-12-21T06:03:04.597Z,20.99
2018-12-21T06:03:37.885Z,20.99
2018-12-21T06:04:11.083Z,20.99
2018-12-21T06:04:44.432Z,20.99
2018-12-21T06:05:17.688Z,20.99
2018-12-21T06:05:50.525Z,20.99
2018-12-21T06:06:23.811Z,20.98
2018-12-21T06:06:57.131Z,20.99
2018-12-21T06:07:30.774Z,20.99
2018-12-21T06:08:04.101Z,21.00
2018-12-21T06:08:37.416Z,21.00
2018-12-21T06:09:10.910Z,20.99
2018-12-21T06:09:44.078Z,20.99
2018-12-21T06:10:17.095Z,20.98
2018-12-21T06:10:50.736Z,20.99
2018-12-21T06:11:23.846Z,20.98
2018-12-21T06:11:57.077Z,20.98
2018-12-21T06:12:30.827Z,20.98
2018-12-21T06:13:03.644Z,20.98
2018-12-21T06:13:37.027Z,20.99
2018-12-21T06:14:10.432Z,20.99
2018-12-21T06:14:43.477Z,20.99
2018-12-21T06:15:16.737Z,20.98
2018-12-21T06:15:49.784Z,20.99
2018-12-21T06:16:23.162Z,21.00
2018-12-21T06:16:56.903Z,20.98
2018-12-21T06:17:30.494Z,20.99
2018-12-21T06:18:03.557Z,20.99
2018-12-21T06:18:38.312Z,20.99
2018-12-21T06:19:12.346Z,21.00
2018-12-21T06:19:45.795Z,21.00
2018-12-21T06:20:19.173Z,20.99
2018-12-21T06:20:52.479Z,21.00
2018-12-21T06:21:25.533Z,20.98
2018-12-21T06:21:58.795Z,20.99
2018-12-21T06:22:32.175Z,21.00
2018-12-21T06:23:09.483Z,20.99
2018-12-21T06:23:40.883Z,20.98
2018-12-21T06:24:14.314Z,20.99
2018-12-21T06:24:47.859Z,20.99
2018-12-21T06:25:21.124Z,20.98
2018-12-21T06:25:54.474Z,20.99
2018-12-21T06:26:27.873Z,20.99
2018-12-21T06:27:01.473Z,20.99
2018-12-21T06:27:34.622Z,21.00
2018-12-21T06:28:07.953Z,20.99
2018-12-21T06:28:41.375Z,20.99
2018-12-21T06:29:14.833Z,21.00
2018-12-21T06:29:48.583Z,21.00
2018-12-21T06:30:21.956Z,20.99
2018-12-21T06:30:55.510Z,20.99
2018-12-21T06:31:28.992Z,20.99
2018-12-21T06:32:02.318Z,21.00
2018-12-21T06:32:35.610Z,20.99
2018-12-21T06:33:08.889Z,20.99
2018-12-21T06:33:42.128Z,20.99
2018-12-21T06:34:15.342Z,20.99
2018-12-21T06:34:48.670Z,20.99
2018-12-21T06:35:21.991Z,20.99
2018-12-21T06:35:55.512Z,20.98
2018-12-21T06:36:28.845Z,20.99
2018-12-21T06:37:02.325Z,20.99
2018-12-21T06:37:35.623Z,20.99
2018-12-21T06:38:08.519Z,20.99
2018-12-21T06:38:41.892Z,20.98
2018-12-21T06:39:15.259Z,20.99
2018-12-21T06:39:48.568Z,20.99
2018-12-21T06:40:22.031Z,20.99
2018-12-21T06:40:55.428Z,20.98
2018-12-21T06:41:28.698Z,20.99
2018-12-21T06:42:02.390Z,20.99
2018-12-21T06:42:35.515Z,20.99
2018-12-21T06:43:08.639Z,21.00
2018-12-21T06:43:42.723Z,21.00
2018-12-21T06:44:16.454Z,20.98
2018-12-21T06:44:49.527Z,20.99
2018-12-21T06:45:22.860Z,20.99
2018-12-21T06:45:56.287Z,20.99
2018-12-21T06:46:29.272Z,21.00
2018-12-21T06:47:02.595Z,20.99
2018-12-21T06:47:35.920Z,20.99
2018-12-21T06:48:09.111Z,20.99
2018-12-21T06:48:42.429Z,20.99
2018-12-21T06:49:15.828Z,21.00
2018-12-21T06:49:49.189Z,21.00
2018-12-21T06:50:22.696Z,21.00
2018-12-21T06:50:55.882Z,21.00
2018-12-21T06:51:29.125Z,20.99
2018-12-21T06:52:02.487Z,21.00
2018-12-21T06:52:35.503Z,20.99
2018-12-21T06:53:08.518Z,21.00
2018-12-21T06:53:41.602Z,20.98
2018-12-21T06:54:15.162Z,21.00
2018-12-21T06:54:48.532Z,20.99
2018-12-21T06:55:21.718Z,21.00
2018-12-21T06:55:55.006Z,21.00
2018-12-21T06:56:28.308Z,21.00
2018-12-21T06:57:01.900Z,21.00
2018-12-21T06:57:35.154Z,21.00
2018-12-21T06:58:08.497Z,21.00
2018-12-21T06:58:41.836Z,20.99
2018-12-21T06:59:14.844Z,21.00
2018-12-21T06:59:47.855Z,21.00
2018-12-21T07:00:21.044Z,21.00
2018-12-21T07:00:54.343Z,21.00
2018-12-21T07:01:27.494Z,20.99
2018-12-21T07:02:00.859Z,21.00
2018-12-21T07:02:34.464Z,21.00
2018-12-21T07:03:07.618Z,21.01
2018-12-21T07:03:40.989Z,20.99
2018-12-21T07:04:14.244Z,20.98
2018-12-21T07:04:47.290Z,20.99
2018-12-21T07:05:20.709Z,20.99
2018-12-21T07:05:54.046Z,20.99
2018-12-21T07:06:27.319Z,20.98
2018-12-21T07:07:00.746Z,20.98
2018-12-21T07:07:34.175Z,20.98
2018-12-21T07:08:07.475Z,20.99
2018-12-21T07:08:40.935Z,20.98
2018-12-21T07:09:13.932Z,20.98
2018-12-21T07:09:47.239Z,20.98